Terminal Aerodrome Forecast
Issued by NWS Cleveland, OH

Home | Current Version | Previous Version | Graphics & Text | Print | Product List | Glossary Off
Versions: 1 2 3 4 5 6 7 8 9 10 11 12 13 14 15 16

000
FTUS41 KCLE 300540
TAFERI
TAF
KERI 300540Z 3006/3106 25012KT P6SM -TSRA BKN060CB
      TEMPO 3006/3007 26020G35KT 2SM -TSRA BKN030CB
     FM301200 20007KT P6SM SCT050
     FM301700 24010G18KT P6SM SCT070=

USA.gov is the U.S. government's official web portal to all federal, state and local government web resources and services.